Time;durP1;ratioP1;P1;durP2;ratioP2;P2;SDS_P1;SDS_P2;PMS_P1;PMS_P2;Temp;Humidity;BMP_temperature;BMP_pressure;BME280_temperature;BME280_humidity;BME280_pressure;Samples;Min_cycle;Max_cycle;Signal;HPM_P1;HPM_P2
2022/06/19 00:01:20;;;;;;;10.50;2.40;;;;;;;13.39;73.18;101264.19;5050235;28;20130;-80
2022/06/19 00:03:50;;;;;;;17.15;2.00;;;;;;;13.40;73.49;101286.41;5048838;28;20025;-79
2022/06/19 00:06:16;;;;;;;10.30;2.05;;;;;;;13.41;73.89;101330.88;5049957;28;20064;-79
2022/06/19 00:08:42;;;;;;;7.78;1.77;;;;;;;13.46;72.78;101373.19;5050351;28;20040;-77
2022/06/19 00:11:11;;;;;;;10.75;2.08;;;;;;;13.56;71.96;101400.75;5050865;28;20064;-77
2022/06/19 00:13:36;;;;;;;9.63;1.75;;;;;;;13.70;71.36;101432.38;5050152;28;20121;-78
2022/06/19 00:16:02;;;;;;;6.78;1.73;;;;;;;13.83;71.39;101460.63;5050106;28;20040;-78
2022/06/19 00:18:27;;;;;;;7.88;1.65;;;;;;;13.91;70.59;101484.81;5031590;28;20033;-77
2022/06/19 00:20:53;;;;;;;11.05;1.65;;;;;;;13.96;70.90;101481.69;5050491;28;20480;-80
2022/06/19 00:23:19;;;;;;;18.63;2.17;;;;;;;13.99;70.58;101471.56;5053236;28;20397;-79
2022/06/19 00:25:44;;;;;;;13.52;1.58;;;;;;;14.03;71.10;101459.59;5052177;28;20127;-80
2022/06/19 00:28:09;;;;;;;7.82;1.77;;;;;;;14.04;71.29;101418.44;5052301;28;20029;-78
2022/06/19 00:30:35;;;;;;;11.40;1.83;;;;;;;14.04;71.35;101370.28;5053053;28;20033;-78
2022/06/19 00:33:01;;;;;;;9.48;2.05;;;;;;;14.08;71.39;101377.03;5053398;28;20090;-79
2022/06/19 00:35:27;;;;;;;9.02;2.15;;;;;;;14.10;71.25;101387.59;5053515;28;20095;-78
2022/06/19 00:37:54;;;;;;;15.05;1.92;;;;;;;14.11;71.38;101395.47;5053830;28;20357;-78
2022/06/19 00:40:20;;;;;;;9.18;1.80;;;;;;;14.12;71.41;101396.28;5053572;28;20040;-78
2022/06/19 00:42:46;;;;;;;9.57;2.00;;;;;;;14.13;71.40;101405.19;5051996;28;20492;-78
2022/06/19 00:45:52;;;;;;;7.85;1.70;;;;;;;14.09;69.84;101401.94;5053462;28;20061;-79
2022/06/19 00:48:21;;;;;;;10.38;1.60;;;;;;;14.07;68.47;101423.50;5030971;28;20453;-78
2022/06/19 00:50:49;;;;;;;9.52;1.90;;;;;;;14.06;66.40;101434.34;5049710;28;20115;-78
2022/06/19 00:53:20;;;;;;;9.52;2.47;;;;;;;14.06;65.78;101443.25;5052755;28;20025;-78
2022/06/19 00:55:47;;;;;;;;;;;;;;;14.03;63.95;101424.81;5053607;28;20025;-78
2022/06/19 00:58:47;;;;;;;9.18;1.40;;;;;;;14.03;62.48;101413.25;5051027;28;19979;-79
2022/06/19 01:01:17;;;;;;;9.23;1.60;;;;;;;14.01;62.33;101394.66;5040315;28;20052;-79
2022/06/19 01:04:09;;;;;;;13.27;2.00;;;;;;;14.01;62.44;101415.22;5050999;28;20033;-80
2022/06/19 01:06:35;;;;;;;11.48;1.90;;;;;;;14.02;62.63;101433.81;5052479;28;20060;-79
2022/06/19 01:09:00;;;;;;;8.07;1.65;;;;;;;14.04;63.07;101420.28;5051481;28;20388;-80
2022/06/19 01:11:33;;;;;;;8.43;1.73;;;;;;;14.05;63.46;101430.00;5051234;28;20457;-79
2022/06/19 01:14:02;;;;;;;14.73;1.58;;;;;;;14.06;64.68;101429.00;5052919;28;20032;-80
2022/06/19 01:16:28;;;;;;;9.10;1.75;;;;;;;14.06;66.11;101413.81;5052921;28;20036;-77
2022/06/19 01:18:53;;;;;;;10.40;2.63;;;;;;;14.07;67.35;101407.44;5052638;28;20033;-78
2022/06/19 01:21:51;;;;;;;11.70;1.75;;;;;;;14.07;67.88;101396.75;5052641;28;20505;-78
2022/06/19 01:24:32;;;;;;;11.18;1.90;;;;;;;14.08;69.66;101382.38;5052765;28;20202;-79
2022/06/19 01:27:01;;;;;;;11.10;3.33;;;;;;;14.08;71.15;101362.81;5051095;28;20135;-79
2022/06/19 01:29:32;;;;;;;9.02;1.70;;;;;;;14.07;72.11;101364.63;5050883;28;20033;-79
2022/06/19 01:32:01;;;;;;;10.35;2.00;;;;;;;14.04;72.66;101348.88;5052000;28;20041;-78
2022/06/19 01:34:35;;;;;;;10.85;2.38;;;;;;;14.05;72.55;101352.41;5051954;28;20040;-79
2022/06/19 01:37:24;;;;;;;15.02;2.42;;;;;;;14.02;71.14;101366.09;5052074;28;20029;-78
2022/06/19 01:39:57;;;;;;;14.95;2.17;;;;;;;13.99;67.68;101414.53;5052066;28;20162;-77
2022/06/19 01:42:23;;;;;;;23.63;1.88;;;;;;;13.98;65.78;101488.59;5052029;28;20100;-78
2022/06/19 01:44:52;;;;;;;9.48;1.42;;;;;;;13.99;65.43;101508.16;5051708;28;20115;-81
2022/06/19 01:47:18;;;;;;;7.85;2.17;;;;;;;14.00;63.60;101493.78;5052207;28;20029;-79
2022/06/19 01:49:46;;;;;;;10.15;1.90;;;;;;;13.98;64.54;101448.47;5051781;28;20502;-79
2022/06/19 01:52:11;;;;;;;10.25;1.85;;;;;;;13.98;65.90;101384.25;5051552;28;20083;-78
2022/06/19 01:54:46;;;;;;;20.17;2.00;;;;;;;13.95;66.71;101344.44;5051920;28;20068;-78
2022/06/19 01:57:12;;;;;;;18.35;2.63;;;;;;;13.94;68.36;101313.31;5050472;28;20075;-78
2022/06/19 01:59:40;;;;;;;14.00;2.47;;;;;;;13.94;68.26;101348.09;5051551;28;20033;-78
2022/06/19 02:02:09;;;;;;;12.55;2.10;;;;;;;13.93;68.34;101402.59;5051377;28;20099;-78
2022/06/19 02:04:35;;;;;;;22.58;2.97;;;;;;;13.93;68.67;101414.13;5050051;28;20106;-78
2022/06/19 02:07:05;;;;;;;24.67;2.92;;;;;;;13.93;68.63;101390.06;5051465;28;20040;-79
2022/06/19 02:09:34;;;;;;;12.10;2.40;;;;;;;13.93;68.17;101453.44;5051551;28;20029;-78
2022/06/19 02:12:00;;;;;;;13.65;2.17;;;;;;;13.92;68.22;101586.31;5051675;28;20102;-79
2022/06/19 02:14:26;;;;;;;20.55;3.03;;;;;;;13.95;68.35;101641.38;5051389;28;20129;-78
2022/06/19 02:16:52;;;;;;;11.98;2.22;;;;;;;13.95;68.41;101632.53;5051079;28;20170;-78
2022/06/19 02:19:18;;;;;;;13.80;2.70;;;;;;;13.96;68.59;101543.22;5049745;28;20476;-79
2022/06/19 02:21:52;;;;;;;13.27;2.40;;;;;;;13.93;69.45;101376.69;5051793;28;20465;-77
2022/06/19 02:24:20;;;;;;;8.63;1.98;;;;;;;13.92;69.11;101243.09;5051302;28;20055;-76
2022/06/19 02:26:48;;;;;;;9.32;1.88;;;;;;;13.87;68.23;101203.41;5051189;28;20028;-78
2022/06/19 02:29:16;;;;;;;13.05;1.95;;;;;;;13.80;67.90;101205.00;5049540;28;20124;-77
2022/06/19 02:31:45;;;;;;;14.57;2.17;;;;;;;13.79;67.73;101239.94;5050947;28;20032;-77
2022/06/19 02:34:19;;;;;;;18.58;2.38;;;;;;;13.81;67.19;101237.94;5050871;28;20112;-78
2022/06/19 02:36:56;;;;;;;15.57;2.38;;;;;;;13.80;65.09;101178.25;5050926;28;20063;-79
2022/06/19 02:39:39;;;;;;;25.95;2.38;;;;;;;13.78;63.88;101144.63;5050906;28;20509;-77
2022/06/19 02:42:19;;;;;;;11.63;2.00;;;;;;;13.71;65.66;101136.41;5050916;28;20033;-69
2022/06/19 02:44:46;;;;;;;13.20;1.98;;;;;;;13.58;69.28;101131.41;5053207;28;20036;-69
2022/06/19 02:47:12;;;;;;;11.57;1.88;;;;;;;13.41;69.33;101130.41;5053980;28;20033;-68
2022/06/19 02:49:37;;;;;;;16.05;2.28;;;;;;;13.20;71.47;101078.03;5053546;28;20519;-69
2022/06/19 02:52:05;;;;;;;12.93;2.20;;;;;;;13.06;72.49;101057.16;5053036;28;20046;-68
2022/06/19 02:54:31;;;;;;;12.40;2.08;;;;;;;12.89;72.99;101045.47;5053206;28;20028;-69
2022/06/19 02:56:57;;;;;;;11.05;2.22;;;;;;;12.67;73.38;101039.56;5053365;28;20037;-69
2022/06/19 02:59:22;;;;;;;10.55;2.22;;;;;;;12.56;74.62;101073.59;5053677;28;20048;-70
2022/06/19 03:01:49;;;;;;;11.15;2.13;;;;;;;12.46;75.63;101109.16;5052834;28;20068;-69
2022/06/19 03:04:20;;;;;;;9.10;2.05;;;;;;;12.33;74.63;101161.97;5051807;28;20068;-69
2022/06/19 03:06:45;;;;;;;17.83;2.22;;;;;;;12.28;73.54;101199.75;5053316;28;20122;-69
2022/06/19 03:09:11;;;;;;;10.50;1.90;;;;;;;12.27;75.18;101208.78;5053456;28;20120;-68
2022/06/19 03:11:36;;;;;;;11.73;2.28;;;;;;;12.33;78.76;101194.88;5052872;28;20449;-69
2022/06/19 03:14:02;;;;;;;7.38;1.92;;;;;;;12.39;79.23;101179.25;5053032;28;20029;-69
2022/06/19 03:16:27;;;;;;;14.73;2.15;;;;;;;12.43;78.41;101186.00;5052992;28;20044;-69
2022/06/19 03:18:52;;;;;;;8.48;1.98;;;;;;;12.45;76.13;101176.00;5052790;28;20049;-69
2022/06/19 03:21:18;;;;;;;12.43;1.98;;;;;;;12.48;75.63;101181.94;5052991;28;20035;-69
2022/06/19 03:23:44;;;;;;;10.05;1.70;;;;;;;12.53;77.60;101184.16;5053002;28;20029;-69
2022/06/19 03:26:09;;;;;;;13.02;2.53;;;;;;;12.55;78.63;101186.69;5053067;28;20063;-69
2022/06/19 03:28:35;;;;;;;13.18;1.63;;;;;;;12.57;78.20;101188.22;5052923;28;20580;-69
2022/06/19 03:31:00;;;;;;;11.45;2.25;;;;;;;12.60;79.78;101213.78;5053211;28;20421;-69
2022/06/19 03:33:25;;;;;;;12.65;1.90;;;;;;;12.60;79.18;101200.44;5052703;28;20029;-69
2022/06/19 03:35:54;;;;;;;12.98;1.98;;;;;;;12.61;80.78;101186.94;5052657;28;20496;-69
2022/06/19 03:38:20;;;;;;;10.48;2.45;;;;;;;12.62;81.34;101148.59;5052427;28;20033;-69
2022/06/19 03:40:45;;;;;;;13.15;1.80;;;;;;;12.58;83.25;101123.16;5052915;28;20051;-69
2022/06/19 03:43:11;;;;;;;17.60;2.17;;;;;;;12.38;82.77;101135.72;5053265;28;20454;-69
2022/06/19 03:45:36;;;;;;;8.02;1.83;;;;;;;12.29;82.02;101156.09;5052706;28;20072;-69
2022/06/19 03:48:02;;;;;;;13.32;2.38;;;;;;;12.18;83.93;101129.56;5053390;28;20029;-69
2022/06/19 03:50:28;;;;;;;12.07;2.10;;;;;;;12.09;88.78;101101.09;5052632;28;20124;-69
2022/06/19 03:52:53;;;;;;;18.15;3.10;;;;;;;11.99;92.41;101032.63;5053067;28;20048;-69
2022/06/19 03:55:19;;;;;;;12.05;2.30;;;;;;;11.84;95.01;100932.72;5052735;28;20048;-70
2022/06/19 03:57:44;;;;;;;13.18;1.83;;;;;;;11.59;94.60;100977.66;5056292;28;20085;-70
2022/06/19 04:00:14;;;;;;;11.52;1.98;;;;;;;11.42;95.24;101064.47;5056558;28;20048;-70
2022/06/19 04:02:41;;;;;;;17.00;2.75;;;;;;;11.32;96.83;101108.91;5057131;28;20048;-75
2022/06/19 04:05:07;;;;;;;10.68;2.53;;;;;;;11.26;99.08;101149.41;5056183;28;20139;-69
2022/06/19 04:07:32;;;;;;;9.77;2.00;;;;;;;11.20;100.00;101144.63;5056803;28;20037;-69
2022/06/19 04:09:59;;;;;;;11.50;2.35;;;;;;;11.10;100.00;101139.25;5056009;28;20036;-70
2022/06/19 04:12:25;;;;;;;10.35;2.22;;;;;;;10.97;100.00;101163.44;5056610;28;20063;-69
2022/06/19 04:14:51;;;;;;;14.05;1.92;;;;;;;10.86;100.00;101172.38;5056798;28;20029;-70
2022/06/19 04:17:16;;;;;;;13.90;2.10;;;;;;;10.76;100.00;101174.13;5055573;28;20085;-70
2022/06/19 04:19:42;;;;;;;13.02;2.45;;;;;;;10.73;100.00;101201.03;5056558;28;20033;-70
2022/06/19 04:22:07;;;;;;;9.30;2.15;;;;;;;10.72;100.00;101205.50;5056229;28;20040;-70
2022/06/19 04:24:32;;;;;;;23.83;2.58;;;;;;;10.74;100.00;101237.31;5056224;28;20389;-69
2022/06/19 04:26:58;;;;;;;11.52;2.17;;;;;;;10.79;100.00;101235.09;5056061;28;20465;-70
2022/06/19 04:29:23;;;;;;;11.68;2.03;;;;;;;10.87;100.00;101235.28;5056129;28;20484;-69
2022/06/19 04:31:49;;;;;;;17.90;2.40;;;;;;;10.95;100.00;101245.28;5055683;28;20025;-69
2022/06/19 04:34:14;;;;;;;11.05;1.88;;;;;;;11.04;100.00;101262.28;5055230;28;20400;-69
2022/06/19 04:36:40;;;;;;;12.48;2.20;;;;;;;11.11;100.00;101252.81;5055995;28;20116;-69
2022/06/19 04:39:05;;;;;;;17.58;2.60;;;;;;;11.18;100.00;101258.44;5056070;28;20405;-71
2022/06/19 04:41:36;;;;;;;18.13;3.80;;;;;;;11.26;100.00;101255.97;5056445;28;20048;-70
2022/06/19 04:44:03;;;;;;;12.65;2.22;;;;;;;11.32;100.00;101263.41;5056572;28;20024;-70
2022/06/19 04:46:28;;;;;;;15.02;2.65;;;;;;;11.39;100.00;101245.91;5054685;28;20533;-70
2022/06/19 04:48:53;;;;;;;13.00;2.58;;;;;;;11.43;100.00;101241.16;5055793;28;20024;-71
2022/06/19 04:51:19;;;;;;;10.10;2.10;;;;;;;11.51;100.00;101240.47;5055664;28;20040;-69
2022/06/19 04:53:45;;;;;;;10.60;2.55;;;;;;;11.56;100.00;101227.59;5055723;28;20385;-70
2022/06/19 04:56:13;;;;;;;19.92;2.60;;;;;;;11.61;100.00;101239.53;5055695;28;20029;-70
2022/06/19 04:58:39;;;;;;;16.02;2.45;;;;;;;11.65;100.00;101258.75;5055390;28;20088;-71
2022/06/19 05:01:18;;;;;;;10.82;2.50;;;;;;;11.69;100.00;101272.66;5055657;28;20472;-70
2022/06/19 05:03:44;;;;;;;13.07;2.22;;;;;;;11.72;100.00;101267.03;5055530;28;20036;-71
2022/06/19 05:06:09;;;;;;;13.80;2.33;;;;;;;11.77;100.00;101259.50;5055386;28;20025;-69
2022/06/19 05:08:35;;;;;;;13.80;2.67;;;;;;;11.81;100.00;101256.41;5054234;28;20033;-70
2022/06/19 05:11:00;;;;;;;15.60;2.97;;;;;;;11.89;100.00;101247.72;5053791;28;20076;-70
2022/06/19 05:13:26;;;;;;;15.32;2.42;;;;;;;11.96;100.00;101259.56;5055245;28;20033;-69
2022/06/19 05:16:05;;;;;;;9.60;2.17;;;;;;;12.03;100.00;101289.19;5055296;28;20440;-71
2022/06/19 05:18:32;;;;;;;13.80;2.33;;;;;;;12.07;100.00;101287.09;5055387;28;20035;-69
2022/06/19 05:21:01;;;;;;;11.52;1.98;;;;;;;12.10;100.00;101279.66;5055264;28;20033;-70
2022/06/19 05:23:27;;;;;;;15.68;2.35;;;;;;;12.15;100.00;101245.41;5055534;28;20041;-69
2022/06/19 05:25:59;;;;;;;18.95;3.55;;;;;;;12.23;100.00;101212.69;5055417;28;20116;-71
2022/06/19 05:28:25;;;;;;;12.80;2.75;;;;;;;12.29;100.00;101204.13;5055064;28;20469;-68
2022/06/19 05:30:50;;;;;;;14.18;2.53;;;;;;;12.33;100.00;101202.00;5055169;28;20064;-74
2022/06/19 05:33:15;;;;;;;13.10;2.60;;;;;;;12.37;98.74;101222.09;5055258;28;20542;-70
2022/06/19 05:35:41;;;;;;;20.73;3.38;;;;;;;12.44;99.11;101235.72;5054635;28;20033;-69
2022/06/19 05:38:11;;;;;;;18.95;2.88;;;;;;;12.50;98.80;101254.66;5055023;28;20030;-70
2022/06/19 05:40:37;;;;;;;18.92;3.33;;;;;;;12.53;97.16;101274.91;5055057;28;20117;-69
2022/06/19 05:43:02;;;;;;;10.32;2.70;;;;;;;12.55;95.55;101296.13;5054936;28;20500;-70
2022/06/19 05:45:27;;;;;;;12.98;3.45;;;;;;;12.50;95.29;101297.38;5054831;28;20476;-69
2022/06/19 05:47:53;;;;;;;10.60;2.58;;;;;;;12.50;95.53;101315.22;5053329;28;20476;-70
2022/06/19 05:50:18;;;;;;;13.10;2.97;;;;;;;12.51;96.42;101319.59;5053669;28;20366;-69
2022/06/19 05:52:43;;;;;;;18.52;2.85;;;;;;;12.50;96.87;101334.75;5054839;28;20058;-70
2022/06/19 05:55:12;;;;;;;16.17;2.95;;;;;;;12.47;96.60;101355.53;5053425;28;20124;-70
2022/06/19 05:57:37;;;;;;;18.15;3.08;;;;;;;12.47;97.44;101363.53;5054374;28;20512;-70
2022/06/19 06:00:03;;;;;;;12.52;2.63;;;;;;;12.44;97.85;101382.50;5054275;28;20121;-70
2022/06/19 06:02:29;;;;;;;14.48;2.90;;;;;;;12.43;97.05;101410.16;5054332;28;20196;-70
2022/06/19 06:04:55;;;;;;;17.63;3.65;;;;;;;12.44;97.79;101422.53;5054929;28;20116;-70
2022/06/19 06:07:20;;;;;;;21.15;4.07;;;;;;;12.40;96.83;101418.44;5054532;28;20087;-70
2022/06/19 06:09:45;;;;;;;17.15;2.85;;;;;;;12.41;97.05;101425.47;5054302;28;20548;-70
2022/06/19 06:12:11;;;;;;;9.63;2.45;;;;;;;12.43;97.56;101432.34;5053834;28;20465;-70
2022/06/19 06:14:36;;;;;;;16.45;3.42;;;;;;;12.45;98.13;101443.75;5054633;28;20033;-70
2022/06/19 06:17:02;;;;;;;13.98;2.17;;;;;;;12.50;98.86;101468.19;5053664;28;20033;-70
2022/06/19 06:19:28;;;;;;;19.40;2.63;;;;;;;12.45;98.47;101475.78;5052036;28;20041;-70
2022/06/19 06:21:53;;;;;;;17.45;2.97;;;;;;;12.45;98.52;101496.25;5053811;28;20036;-70
2022/06/19 06:24:19;;;;;;;14.32;2.45;;;;;;;12.47;99.43;101484.47;5054042;28;20032;-69
2022/06/19 06:26:44;;;;;;;12.95;2.90;;;;;;;12.49;100.00;101500.34;5069179;28;20044;-69
2022/06/19 06:29:10;;;;;;;20.23;2.58;;;;;;;12.49;99.55;101495.84;5053854;28;20033;-71
2022/06/19 06:31:36;;;;;;;14.60;3.03;;;;;;;12.48;98.96;101486.19;5054336;28;20043;-70
2022/06/19 06:34:01;;;;;;;19.08;3.05;;;;;;;12.49;98.61;101481.69;5053308;28;20072;-70
2022/06/19 06:36:29;;;;;;;21.05;3.22;;;;;;;12.52;98.96;101484.94;5053685;28;20037;-70
2022/06/19 06:38:55;;;;;;;11.68;2.47;;;;;;;12.55;99.25;101491.81;5053998;28;20123;-69
2022/06/19 06:41:20;;;;;;;10.57;2.70;;;;;;;12.53;98.47;101493.78;5053752;28;20104;-70
2022/06/19 06:43:46;;;;;;;15.85;2.80;;;;;;;12.54;98.68;101492.81;5053816;28;20040;-70
2022/06/19 06:46:21;;;;;;;19.55;3.33;;;;;;;12.52;98.03;101484.06;5053191;28;20033;-71
2022/06/19 06:48:49;;;;;;;16.80;3.28;;;;;;;12.51;98.61;101477.91;5053587;28;20036;-70
2022/06/19 06:51:19;;;;;;;16.77;3.67;;;;;;;12.58;100.00;101470.16;5053322;28;20453;-70
2022/06/19 06:53:44;;;;;;;27.73;5.20;;;;;;;12.64;100.00;101474.13;5053045;28;20432;-69
2022/06/19 06:56:10;;;;;;;16.75;4.15;;;;;;;12.67;100.00;101469.38;5052598;28;20033;-71
2022/06/19 06:58:37;;;;;;;13.30;3.85;;;;;;;12.73;100.00;101478.63;5053392;28;20045;-70
2022/06/19 07:01:08;;;;;;;15.63;4.22;;;;;;;12.75;99.09;101482.03;5053093;28;20400;-71
2022/06/19 07:03:33;;;;;;;15.25;4.32;;;;;;;12.85;100.00;101485.56;5053162;28;20473;-70
2022/06/19 07:05:59;;;;;;;15.30;3.83;;;;;;;12.85;100.00;101490.03;5052935;28;20037;-70
2022/06/19 07:08:24;;;;;;;11.70;3.60;;;;;;;12.78;98.66;101502.25;5051798;28;20040;-69
2022/06/19 07:10:49;;;;;;;12.60;3.55;;;;;;;12.76;98.37;101512.25;5035473;28;20087;-69
2022/06/19 07:13:15;;;;;;;14.18;4.32;;;;;;;12.73;99.44;101518.69;5052240;28;20041;-70
2022/06/19 07:15:40;;;;;;;18.48;4.70;;;;;;;12.69;99.88;101527.97;5051738;28;20033;-70
2022/06/19 07:18:06;;;;;;;21.63;4.90;;;;;;;12.67;100.00;101540.59;5052946;28;20040;-71
2022/06/19 07:20:31;;;;;;;20.48;3.80;;;;;;;12.65;100.00;101538.06;5052950;28;20082;-71
2022/06/19 07:22:56;;;;;;;12.82;3.35;;;;;;;12.68;100.00;101534.28;5053186;28;20090;-71
2022/06/19 07:25:22;;;;;;;16.15;4.10;;;;;;;12.69;99.88;101533.31;5051832;28;20416;-71
2022/06/19 07:27:48;;;;;;;16.08;4.00;;;;;;;12.69;99.22;101533.31;5053050;28;20389;-71
2022/06/19 07:30:16;;;;;;;25.50;4.45;;;;;;;12.65;98.60;101527.38;5052462;28;20025;-72
2022/06/19 07:32:41;;;;;;;20.05;4.15;;;;;;;12.63;98.54;101515.16;5053165;28;20037;-71
2022/06/19 07:35:07;;;;;;;14.88;4.60;;;;;;;12.62;100.00;101513.47;5052499;28;20040;-72
2022/06/19 07:37:32;;;;;;;17.42;4.53;;;;;;;12.62;100.00;101506.31;5052761;28;20033;-70
2022/06/19 07:39:58;;;;;;;23.55;3.90;;;;;;;12.66;100.00;101496.22;5052834;28;20433;-71
2022/06/19 07:42:23;;;;;;;17.33;4.00;;;;;;;12.73;100.00;101499.16;5053043;28;20036;-71
2022/06/19 07:44:48;;;;;;;17.80;4.60;;;;;;;12.79;100.00;101482.59;5052684;28;20059;-72
2022/06/19 07:50:10;;;;;;;21.98;4.03;;;;;;;12.86;100.00;101473.03;5051344;28;20167;-72
2022/06/19 07:52:39;;;;;;;19.70;4.07;;;;;;;12.98;100.00;101444.38;5052802;28;20029;-73
2022/06/19 07:55:06;;;;;;;19.77;3.72;;;;;;;13.14;100.00;101430.47;5052313;28;20025;-71
2022/06/19 07:57:32;;;;;;;15.85;3.63;;;;;;;13.29;100.00;101426.38;5052506;28;20044;-71
2022/06/19 07:59:57;;;;;;;18.30;3.92;;;;;;;13.43;100.00;101417.09;5052248;28;20542;-72
2022/06/19 08:02:24;;;;;;;15.48;4.05;;;;;;;13.56;99.16;101422.97;5052010;28;20036;-72
2022/06/19 08:04:50;;;;;;;16.80;4.55;;;;;;;13.70;98.41;101413.66;5052155;28;20040;-71
2022/06/19 08:07:16;;;;;;;18.52;4.18;;;;;;;13.80;97.33;101402.91;5052425;28;20033;-72
2022/06/19 08:09:42;;;;;;;16.65;3.63;;;;;;;13.90;97.04;101414.44;5052589;28;20040;-72
2022/06/19 08:12:08;;;;;;;18.05;3.28;;;;;;;13.91;94.22;101412.59;5052090;28;20040;-72
2022/06/19 08:14:34;;;;;;;18.05;3.58;;;;;;;13.94;92.97;101417.63;5052088;28;20497;-73
2022/06/19 08:16:59;;;;;;;19.27;2.90;;;;;;;13.93;92.96;101414.13;5052277;28;20033;-72
2022/06/19 08:19:24;;;;;;;19.70;3.30;;;;;;;14.04;93.90;101413.09;5051722;28;20029;-73
2022/06/19 08:21:50;;;;;;;13.43;3.80;;;;;;;14.10;92.22;101417.00;5050871;28;20051;-70
2022/06/19 08:24:15;;;;;;;11.68;3.13;;;;;;;14.13;90.91;101413.22;5052266;28;20373;-71
2022/06/19 08:26:40;;;;;;;12.77;3.20;;;;;;;14.22;92.05;101423.84;5052297;28;20385;-71
2022/06/19 08:29:06;;;;;;;10.60;3.28;;;;;;;14.28;91.72;101417.91;5051987;28;20121;-71
2022/06/19 08:31:33;;;;;;;14.05;3.30;;;;;;;14.31;89.70;101422.13;5050588;28;20039;-71
2022/06/19 08:33:58;;;;;;;16.77;3.10;;;;;;;14.18;89.37;101419.81;5051343;28;20047;-70
2022/06/19 08:36:25;;;;;;;15.82;4.00;;;;;;;14.14;90.50;101410.38;5051925;28;20377;-71
2022/06/19 08:38:57;;;;;;;25.15;6.25;;;;;;;14.15;91.78;101403.19;5052097;28;20219;-70
2022/06/19 08:42:07;;;;;;;13.68;3.50;;;;;;;14.11;90.45;101403.50;5052090;28;20025;-70
2022/06/19 08:44:48;;;;;;;15.20;2.92;;;;;;;14.07;90.42;101388.72;5054260;28;20052;-71
2022/06/19 08:47:41;;;;;;;11.82;2.92;;;;;;;14.15;91.48;101395.16;5055562;28;20029;-74
2022/06/19 08:50:12;;;;;;;9.55;2.50;;;;;;;14.18;90.14;101414.44;5055696;28;20032;-71
2022/06/19 08:52:37;;;;;;;;;;;;;;;14.17;90.28;101431.50;5055707;28;20128;-71
2022/06/19 08:55:28;;;;;;;8.93;2.33;;;;;;;14.07;88.97;101428.00;5055376;28;19984;-70
2022/06/19 08:58:18;;;;;;;12.13;2.85;;;;;;;14.00;90.26;101425.09;5055396;28;20311;-70
2022/06/19 09:00:55;;;;;;;14.60;3.50;;;;;;;13.93;89.38;101415.97;5054700;28;20087;-69
2022/06/19 09:06:40;;;;;;;15.70;2.78;;;;;;;13.89;90.58;101423.44;5055840;28;20143;-70
2022/06/19 09:09:45;;;;;;;17.80;3.25;;;;;;;13.88;90.70;101413.75;5054376;28;20029;-70
2022/06/19 09:12:23;;;;;;;11.05;2.80;;;;;;;13.98;91.23;101399.47;5054966;28;20053;-69
2022/06/19 09:15:12;;;;;;;13.20;2.28;;;;;;;14.08;90.39;101385.06;5055508;28;20108;-69
2022/06/19 09:18:00;;;;;;;10.88;2.25;;;;;;;14.25;90.05;101371.88;5055975;28;20024;-70
2022/06/19 09:20:37;;;;;;;8.98;1.98;;;;;;;14.35;88.14;101367.28;5053912;28;20021;-69
2022/06/19 09:23:29;;;;;;;8.23;2.50;;;;;;;14.48;87.87;101364.25;5055426;28;20029;-69
2022/06/19 09:26:01;;;;;;;8.85;2.55;;;;;;;14.56;87.04;101348.25;5054782;28;20037;-69
2022/06/19 09:28:49;;;;;;;12.32;3.13;;;;;;;14.71;86.48;101362.00;5055536;28;20114;-70
2022/06/19 09:31:43;;;;;;;8.60;1.70;;;;;;;14.74;82.63;101383.09;5055209;28;20029;-69
2022/06/19 09:34:18;;;;;;;5.88;1.50;;;;;;;14.69;80.95;101387.22;5044584;28;20081;-71
2022/06/19 09:36:52;;;;;;;6.60;2.05;;;;;;;14.67;81.58;101381.19;5053363;28;20032;-72
2022/06/19 09:39:28;;;;;;;6.22;1.50;;;;;;;14.80;81.77;101373.63;5055167;28;20092;-71
2022/06/19 09:42:01;;;;;;;8.93;1.40;;;;;;;14.98;78.65;101384.31;5055072;28;20468;-70
2022/06/19 09:44:49;;;;;;;9.32;1.70;;;;;;;15.24;78.85;101375.47;5055235;28;20082;-71
2022/06/19 09:47:38;;;;;;;4.72;1.30;;;;;;;15.62;77.71;101365.31;5055004;28;20033;-72
2022/06/19 09:50:14;;;;;;;9.32;1.60;;;;;;;16.01;74.22;101352.28;5054566;28;20066;-73
2022/06/19 09:53:08;;;;;;;5.82;1.50;;;;;;;16.40;72.93;101350.88;5054769;28;20071;-70
2022/06/19 09:55:40;;;;;;;6.05;1.50;;;;;;;16.75;72.71;101371.25;5053912;28;20116;-71
2022/06/19 09:58:29;;;;;;;5.93;1.60;;;;;;;16.92;70.67;101379.34;5054208;28;20057;-72
2022/06/19 10:00:57;;;;;;;5.20;1.60;;;;;;;17.17;70.04;101390.09;5054673;28;20465;-74
2022/06/19 10:03:26;;;;;;;6.90;1.70;;;;;;;17.32;69.04;101409.91;5054358;28;20025;-71
2022/06/19 10:05:51;;;;;;;5.97;1.90;;;;;;;17.11;69.33;101418.50;5053987;28;20083;-72
2022/06/19 10:08:40;;;;;;;5.47;1.55;;;;;;;17.10;70.09;101393.44;5055056;28;20064;-72
2022/06/19 10:11:29;;;;;;;13.70;2.75;;;;;;;17.43;67.18;101362.97;5053027;28;20032;-72
2022/06/19 10:14:09;;;;;;;6.88;2.13;;;;;;;18.03;67.80;101380.47;5054118;28;20029;-73
2022/06/19 10:16:46;;;;;;;4.95;1.38;;;;;;;18.29;64.33;101385.56;5054082;28;20112;-74
2022/06/19 10:19:17;;;;;;;8.48;2.10;;;;;;;18.30;62.92;101424.09;5053997;28;20155;-72
2022/06/19 10:22:14;;;;;;;6.65;1.60;;;;;;;17.92;62.30;101435.53;5054496;28;20032;-72
2022/06/19 10:25:14;;;;;;;8.25;1.80;;;;;;;17.72;65.58;101436.91;5053878;28;20040;-73
2022/06/19 10:28:16;;;;;;;5.72;1.52;;;;;;;17.41;64.46;101438.47;5042129;28;20230;-72
2022/06/19 10:31:09;;;;;;;2.75;1.08;;;;;;;17.38;64.03;101432.59;5054284;28;20453;-73
2022/06/19 10:33:59;;;;;;;6.00;1.40;;;;;;;17.20;63.28;101439.00;5053384;28;20510;-73
2022/06/19 10:36:51;;;;;;;6.70;1.73;;;;;;;17.39;64.53;101431.56;5053661;28;20480;-73
2022/06/19 10:39:35;;;;;;;4.43;1.30;;;;;;;17.58;64.57;101407.00;5053573;28;20091;-74
2022/06/19 10:42:05;;;;;;;5.80;1.58;;;;;;;17.87;62.74;101391.28;5053683;28;20035;-73
2022/06/19 10:44:36;;;;;;;5.75;1.60;;;;;;;18.02;61.54;101388.72;5053719;28;20060;-73
2022/06/19 10:47:12;;;;;;;6.13;1.77;;;;;;;19.19;59.14;101410.25;5053686;28;20095;-73
2022/06/19 10:49:54;;;;;;;7.10;1.90;;;;;;;20.19;55.87;101400.06;5053438;28;20029;-71
2022/06/19 10:52:20;;;;;;;5.32;1.58;;;;;;;20.81;55.51;101387.03;5053829;28;20029;-72
2022/06/19 10:54:50;;;;;;;6.38;1.42;;;;;;;21.04;52.97;101386.84;5053797;28;20075;-73
2022/06/19 10:57:34;;;;;;;4.82;1.60;;;;;;;21.66;50.58;101372.53;5053960;28;20033;-73
2022/06/19 11:00:00;;;;;;;9.30;2.80;;;;;;;22.61;49.44;101379.16;5053558;28;20076;-73
2022/06/19 11:05:34;;;;;;;6.32;1.80;;;;;;;23.57;44.71;101376.03;5053304;28;20047;-71
2022/06/19 11:07:59;;;;;;;4.70;1.40;;;;;;;23.16;46.14;101373.56;5052896;28;20029;-70
2022/06/19 11:10:30;;;;;;;9.02;2.10;;;;;;;23.12;44.93;101370.44;5053284;28;20090;-71
2022/06/19 11:12:58;;;;;;;6.90;1.70;;;;;;;22.67;45.30;101386.47;5053137;28;20545;-72
2022/06/19 11:15:32;;;;;;;7.63;2.22;;;;;;;22.05;46.66;101405.44;5053042;28;20037;-69
2022/06/19 11:18:12;;;;;;;5.38;2.00;;;;;;;21.56;49.06;101409.94;5052680;28;20393;-69
2022/06/19 11:20:40;;;;;;;10.98;2.05;;;;;;;21.17;48.72;101392.34;5053180;28;20140;-69
2022/06/19 11:23:29;;;;;;;5.20;1.70;;;;;;;20.98;50.65;101383.03;5053216;28;20471;-68
2022/06/19 11:26:19;;;;;;;11.88;2.20;;;;;;;21.14;51.24;101396.28;5053180;28;20112;-68
2022/06/19 11:28:56;;;;;;;7.20;2.00;;;;;;;21.93;49.86;101424.13;5052911;28;20070;-68
2022/06/19 11:31:21;;;;;;;5.82;1.85;;;;;;;22.63;47.70;101443.00;5052775;28;20029;-68
2022/06/19 11:33:51;;;;;;;9.45;1.90;;;;;;;22.80;46.26;101457.00;5052437;28;20036;-68
2022/06/19 11:36:38;;;;;;;7.40;1.98;;;;;;;22.33;46.95;101465.00;5052642;28;20029;-71
2022/06/19 11:39:34;;;;;;;8.25;1.60;;;;;;;22.13;46.76;101491.97;5052641;28;20033;-70
2022/06/19 11:42:37;;;;;;;10.80;2.42;;;;;;;21.99;48.22;101503.78;5052688;28;20107;-69
2022/06/19 11:45:14;;;;;;;11.02;2.45;;;;;;;21.82;48.06;101514.06;5052364;28;20120;-68